METAR Data
IDs: Format: Raw Decoded Include TAF

Data at: 0232 UTC 12 May 2021

KANQ 120215Z AUTO 29004KT 10SM CLR 07/00 A3035 RMK AO2
KANQ 120155Z AUTO 29005KT 10SM CLR 07/M00 A3033 RMK AO2
KANQ 120135Z AUTO 28005KT 10SM CLR 08/M01 A3032 RMK AO2
KANQ 120115Z AUTO 30003KT 10SM CLR 08/M01 A3031 RMK AO2
KANQ 120055Z AUTO 30005KT 10SM CLR 09/M01 A3030 RMK AO2
KANQ 120035Z AUTO 31007KT 10SM CLR 10/M02 A3029 RMK AO2
KANQ 120015Z AUTO 32005KT 10SM CLR 10/M02 A3028 RMK AO2
KANQ 112355Z AUTO 32007KT 10SM FEW070 11/M02 A3028 RMK AO2
KANQ 112335Z AUTO 33007KT 10SM SCT065 11/M03 A3028 RMK AO2
KANQ 112315Z AUTO 35006KT 10SM FEW065 11/M03 A3027 RMK AO2
KANQ 112255Z AUTO 30012KT 10SM SCT065 11/M03 A3026 RMK AO2
KANQ 112235Z AUTO 31011KT 10SM SCT060 11/M03 A3026 RMK AO2
KANQ 112215Z AUTO 31010KT 10SM SCT060 11/M03 A3026 RMK AO2
KANQ 112155Z AUTO 33009KT 10SM FEW060 11/M03 A3026 RMK AO2
KANQ 112135Z AUTO 30011KT 10SM FEW060 11/M03 A3026 RMK AO2
KANQ 112115Z AUTO 30012KT 10SM FEW060 11/M03 A3026 RMK AO2
KANQ 112055Z AUTO 32010G16KT 290V350 10SM SCT060 SCT070 11/M03 A3026 RMK AO2
KANQ 112035Z AUTO 33011G18KT 10SM BKN060 11/M03 A3027 RMK AO2
KANQ 112015Z AUTO 34011G20KT 10SM BKN060 BKN070 11/M03 A3026 RMK AO2
KANQ 111955Z AUTO 32011KT 10SM SCT060 SCT070 10/M03 A3026 RMK AO2
KANQ 111935Z AUTO 35010G16KT 330V030 10SM FEW065 SCT070 10/M04 A3026 RMK AO2
KANQ 111915Z AUTO 31012G18KT 280V350 10SM FEW060 SCT070 11/M03 A3027 RMK AO2
KANQ 111855Z AUTO 31012G18KT 10SM SCT060 BKN070 11/M04 A3027 RMK AO2
KANQ 111835Z AUTO 31013G19KT 10SM SCT060 BKN070 10/M04 A3028 RMK AO2
KANQ 111815Z AUTO 34011G23KT 310V020 10SM SCT065 SCT075 10/M03 A3028 RMK AO2
KANQ 111755Z AUTO 32010G21KT 10SM BKN060 10/M03 A3029 RMK AO2
KANQ 111735Z AUTO 33010G16KT 10SM BKN055 BKN065 10/M02 A3029 RMK AO2
KANQ 111715Z AUTO 30009G15KT 10SM BKN050 BKN060 09/M02 A3030 RMK AO2
KANQ 111655Z AUTO 34009G16KT 320V020 10SM BKN050 BKN055 08/M02 A3030 RMK AO2
KANQ 111635Z AUTO 31010KT 290V360 10SM BKN050 BKN055 08/M02 A3031 RMK AO2
KANQ 111615Z AUTO 30010G18KT 280V340 10SM BKN048 BKN055 08/M02 A3030 RMK AO2
KANQ 111555Z AUTO 32010G17KT 10SM BKN047 08/M02 A3030 RMK AO2
KANQ 111535Z AUTO 35011G20KT 10SM SCT045 08/M02 A3030 RMK AO2
KANQ 111515Z AUTO 34009G15KT 300V020 10SM SCT046 08/M02 A3030 RMK AO2
KANQ 111455Z AUTO 36012KT 10SM FEW044 08/M03 A3030 RMK AO2
KANQ 111435Z AUTO 01013G19KT 10SM CLR 07/M02 A3029 RMK AO2
KANQ 111415Z AUTO 32007G13KT 10SM CLR 07/M02 A3030 RMK AO2
KANQ 111355Z AUTO 33012KT 10SM CLR 06/M02 A3029 RMK AO2
KANQ 111335Z AUTO 34008G15KT 290V010 10SM CLR 06/M02 A3029 RMK AO2
KANQ 111315Z AUTO 32009G14KT 10SM CLR 06/M01 A3029 RMK AO2
KANQ 111255Z AUTO 34007KT 310V020 10SM CLR 05/00 A3028 RMK AO2
KANQ 111235Z AUTO 36006KT 10SM CLR 04/M00 A3028 RMK AO2
KANQ 111215Z AUTO VRB06KT 10SM CLR 03/M01 A3028 RMK AO2
KANQ 111155Z AUTO 31005KT 10SM CLR 03/M01 A3027 RMK AO2
KANQ 111135Z AUTO 31003KT 10SM CLR 02/M01 A3026 RMK AO2
KANQ 111115Z AUTO 33003KT 10SM CLR 02/M01 A3025 RMK AO2
KANQ 111055Z AUTO 33004KT 10SM CLR 01/M01 A3025 RMK AO2
KANQ 111035Z AUTO 00000KT 10SM CLR 01/M01 A3024 RMK AO2
KANQ 111015Z AUTO 00000KT 10SM CLR 01/M01 A3023 RMK AO2
KANQ 110955Z AUTO 31003KT 10SM CLR 01/M01 A3023 RMK AO2
KANQ 110935Z AUTO 00000KT 10SM CLR 02/M01 A3022 RMK AO2
KANQ 110915Z AUTO 00000KT 10SM CLR 02/M01 A3021 RMK AO2
KANQ 110855Z AUTO 35003KT 10SM CLR 02/M01 A3021 RMK AO2
KANQ 110835Z AUTO 35004KT 10SM FEW110 02/M01 A3020 RMK AO2
KANQ 110815Z AUTO 35004KT 10SM BKN110 03/M01 A3020 RMK AO2
KANQ 110755Z AUTO 36006KT 10SM SCT100 BKN120 03/M01 A3018 RMK AO2
KANQ 110735Z AUTO 00000KT 10SM SCT110 03/M01 A3018 RMK AO2
KANQ 110715Z AUTO 33004KT 10SM BKN110 03/M01 A3019 RMK AO2
KANQ 110655Z AUTO 33005KT 10SM SCT110 03/M01 A3019 RMK AO2
KANQ 110635Z AUTO 31004KT 10SM CLR 03/M01 A3019 RMK AO2
KANQ 110615Z AUTO 31004KT 10SM FEW090 04/M02 A3018 RMK AO2
KANQ 110555Z AUTO 32005KT 10SM FEW110 04/M02 A3018 RMK AO2
KANQ 110535Z AUTO 31006KT 10SM BKN110 04/M02 A3018 RMK AO2
KANQ 110515Z AUTO 31004KT 10SM BKN100 BKN120 05/M02 A3018 RMK AO2
KANQ 110455Z AUTO 31004KT 10SM FEW080 OVC100 05/M02 A3018 RMK AO2
KANQ 110435Z AUTO 31005KT 10SM FEW075 BKN090 OVC110 05/M02 A3018 RMK AO2
KANQ 110415Z AUTO 31004KT 10SM OVC110 05/M02 A3018 RMK AO2
KANQ 110355Z AUTO 32005KT 10SM BKN110 06/M02 A3017 RMK AO2
KANQ 110335Z AUTO 32004KT 10SM BKN110 06/M01 A3017 RMK AO2
KANQ 110315Z AUTO 32005KT 10SM OVC100 06/M01 A3017 RMK AO2
KANQ 110255Z AUTO 30004KT 10SM OVC100 07/M00 A3017 RMK AO2
KANQ 110235Z AUTO 31004KT 10SM OVC100 07/01 A3016 RMK AO2
KANQ 110215Z AUTO 29004KT 10SM OVC100 07/01 A3016 RMK AO2
KANQ 110155Z AUTO 30004KT 10SM BKN100 BKN120 08/01 A3015 RMK AO2
KANQ 110135Z AUTO 33007KT 10SM FEW110 07/02 A3014 RMK AO2
KANQ 110115Z AUTO 00000KT 10SM CLR 08/02 A3014 RMK AO2
KANQ 110055Z AUTO 29003KT 10SM CLR 08/02 A3014 RMK AO2
KANQ 110035Z AUTO 31004KT 10SM CLR 09/02 A3013 RMK AO2
KANQ 110015Z AUTO 32005KT 10SM CLR 10/01 A3013 RMK AO2
KANQ 102355Z AUTO 00000KT 10SM CLR 10/02 A3012 RMK AO2
KANQ 102335Z AUTO 35008KT 10SM CLR 10/02 A3012 RMK AO2
KANQ 102315Z AUTO 36007KT 10SM FEW050 FEW055 10/02 A3012 RMK AO2
KANQ 102255Z AUTO 35005KT 10SM FEW060 10/03 A3012 RMK AO2
KANQ 102235Z AUTO 33007KT 10SM BKN060 10/03 A3012 RMK AO2
KANQ 102215Z AUTO 35008KT 10SM FEW048 OVC055 11/03 A3012 RMK AO2
KANQ 102155Z AUTO 35006KT 10SM OVC048 10/02 A3012 RMK AO2
KANQ 102135Z AUTO 31008KT 10SM OVC049 10/02 A3012 RMK AO2
KANQ 102115Z AUTO 32008KT 10SM OVC049 10/02 A3011 RMK AO2
KANQ 102055Z AUTO 32010KT 10SM BKN048 OVC065 11/02 A3011 RMK AO2
KANQ 102035Z AUTO VRB06G12KT 10SM OVC045 11/02 A3011 RMK AO2
KANQ 102015Z AUTO 27008KT 10SM BKN047 BKN055 11/01 A3011 RMK AO2
KANQ 101955Z AUTO 26005G11KT 10SM BKN050 11/02 A3012 RMK AO2
KANQ 101935Z AUTO VRB06G12KT 10SM BKN050 BKN080 OVC100 11/02 A3011 RMK AO2
KANQ 101915Z AUTO VRB07G12KT 300V010 10SM SCT055 BKN080 BKN100 10/01 A3011 RMK AO2
KANQ 101855Z AUTO 34004G11KT 10SM FEW043 BKN055 BKN070 10/02 A3012 RMK AO2
KANQ 101835Z AUTO 30005KT 10SM FEW037 FEW044 SCT055 10/01 A3012 RMK AO2
KANQ 101815Z AUTO 32011KT 10SM FEW036 SCT044 SCT055 10/00 A3012 RMK AO2
KANQ 101755Z AUTO 34005KT 10SM BKN055 11/M01 A3012 RMK AO2
KANQ 101735Z AUTO 32008KT 10SM OVC060 11/M00 A3012 RMK AO2
KANQ 101715Z AUTO VRB05KT 10SM OVC060 11/M00 A3012 RMK AO2
KANQ 101655Z AUTO 00000KT 10SM SCT060 11/M01 A3012 RMK AO2
KANQ 101635Z AUTO 12003KT 10SM FEW065 FEW075 11/M00 A3011 RMK AO2
KANQ 101615Z AUTO 01003KT 10SM BKN065 BKN075 10/M01 A3011 RMK AO2
KANQ 101555Z AUTO 35003KT 10SM OVC065 09/M02 A3012 RMK AO2
KANQ 101535Z AUTO 35005KT 10SM BKN060 09/M02 A3011 RMK AO2
KANQ 101515Z AUTO 32007KT 10SM SCT065 SCT110 10/M01 A3011 RMK AO2
KANQ 101455Z AUTO 32005KT 10SM FEW070 SCT110 09/01 A3011 RMK AO2
KANQ 101435Z AUTO 03004KT 10SM FEW070 FEW080 09/00 A3011 RMK AO2